createdAt,value
2017-04-16T00:01:04.809Z,967.95
2017-04-16T00:02:13.884Z,967.98
2017-04-16T00:03:22.916Z,967.96
2017-04-16T00:04:32.615Z,967.97
2017-04-16T00:05:41.683Z,967.93
2017-04-16T00:06:50.746Z,967.96
2017-04-16T00:08:00.132Z,967.98
2017-04-16T00:09:09.880Z,967.96
2017-04-16T00:10:18.975Z,968.02
2017-04-16T00:11:28.264Z,967.99
2017-04-16T00:12:37.041Z,968.02
2017-04-16T00:13:46.438Z,968.03
2017-04-16T00:14:55.210Z,968.02
2017-04-16T00:16:04.279Z,968.02
2017-04-16T00:17:13.350Z,968.06
2017-04-16T00:18:22.125Z,968.08
2017-04-16T00:19:30.902Z,968.1
2017-04-16T00:20:39.962Z,968.11
2017-04-16T00:21:48.988Z,968.09
2017-04-16T00:22:58.070Z,968.12
2017-04-16T00:24:06.846Z,968.11
2017-04-16T00:25:16.229Z,968.1
2017-04-16T00:26:24.997Z,968.11
2017-04-16T00:27:34.022Z,968.08
2017-04-16T00:28:43.112Z,968.09
2017-04-16T00:29:52.200Z,968.09
2017-04-16T00:31:01.280Z,968.11
2017-04-16T00:32:10.661Z,968.1
2017-04-16T00:33:19.722Z,968.08
2017-04-16T00:34:28.797Z,968.12
2017-04-16T00:35:37.881Z,968.08
2017-04-16T00:36:47.580Z,968.12
2017-04-16T00:37:56.369Z,968.13
2017-04-16T00:39:05.451Z,968.13
2017-04-16T00:40:14.840Z,968.07
2017-04-16T00:41:23.914Z,968.11
2017-04-16T00:42:32.932Z,968.09
2017-04-16T00:43:42.269Z,968.08
2017-04-16T00:44:51.657Z,968.08
2017-04-16T00:46:01.069Z,968.09
2017-04-16T00:47:10.104Z,968.14
2017-04-16T00:48:19.165Z,968.13
2017-04-16T00:49:28.620Z,968.06
2017-04-16T00:50:37.963Z,968.05
2017-04-16T00:51:47.347Z,968.04
2017-04-16T00:52:56.837Z,968.04
2017-04-16T00:54:06.217Z,967.98
2017-04-16T00:55:15.611Z,967.99
2017-04-16T00:56:24.711Z,968.02
2017-04-16T00:57:33.784Z,968.03
2017-04-16T00:58:42.867Z,968.04
2017-04-16T00:59:52.865Z,968.02
2017-04-16T01:01:02.544Z,968.04
2017-04-16T01:02:11.563Z,968.01
2017-04-16T01:03:20.336Z,968.01
2017-04-16T01:04:29.728Z,968.05
2017-04-16T01:05:38.500Z,968.02
2017-04-16T01:06:47.276Z,968.08
2017-04-16T01:07:56.353Z,968.06
2017-04-16T01:09:05.130Z,968.08
2017-04-16T01:10:14.514Z,968.06
2017-04-16T01:11:23.901Z,968.08
2017-04-16T01:12:32.617Z,968.07
2017-04-16T01:13:42.028Z,968.1
2017-04-16T01:14:51.109Z,968.09
2017-04-16T01:16:00.081Z,968.14
2017-04-16T01:17:09.504Z,968.13
2017-04-16T01:18:18.585Z,968.12
2017-04-16T01:19:27.654Z,968.13
2017-04-16T01:20:36.675Z,968.16
2017-04-16T01:21:45.460Z,968.16
2017-04-16T01:22:54.837Z,968.13
2017-04-16T01:24:03.924Z,968.14
2017-04-16T01:25:13.012Z,968.14
2017-04-16T01:26:22.401Z,968.12
2017-04-16T01:27:31.476Z,968.12
2017-04-16T01:28:40.863Z,968.09
2017-04-16T01:29:49.945Z,968.11
2017-04-16T01:30:59.628Z,968.11
2017-04-16T01:32:09.010Z,968.08
2017-04-16T01:33:18.682Z,968.12
2017-04-16T01:34:27.701Z,968.09
2017-04-16T01:35:37.232Z,968.09
2017-04-16T01:36:46.924Z,968.11
2017-04-16T01:37:56.605Z,968.07
2017-04-16T01:39:06.602Z,968.07
2017-04-16T01:40:15.679Z,968.05
2017-04-16T01:41:24.455Z,968.05
2017-04-16T01:42:33.237Z,968.05
2017-04-16T01:43:42.014Z,968.05
2017-04-16T01:44:51.702Z,968.02
2017-04-16T01:46:01.382Z,968.03
2017-04-16T01:47:10.736Z,968.01
2017-04-16T01:48:19.813Z,968.05
2017-04-16T01:49:28.899Z,968
2017-04-16T01:50:38.253Z,968.03
2017-04-16T01:51:47.275Z,968
2017-04-16T01:52:56.048Z,967.98
2017-04-16T01:54:05.438Z,968
2017-04-16T01:55:14.822Z,968.06
2017-04-16T01:56:23.897Z,968.05
2017-04-16T01:57:32.605Z,967.97
2017-04-16T01:58:41.684Z,967.97
2017-04-16T01:59:51.993Z,967.96
2017-04-16T02:01:00.766Z,967.99
2017-04-16T02:02:10.166Z,967.99
2017-04-16T02:03:18.936Z,967.97
2017-04-16T02:04:28.021Z,967.97
2017-04-16T02:05:37.097Z,967.93
2017-04-16T02:06:46.172Z,967.93
2017-04-16T02:07:54.946Z,967.94
2017-04-16T02:09:04.033Z,967.91
2017-04-16T02:10:13.103Z,967.93
2017-04-16T02:11:22.113Z,967.91
2017-04-16T02:12:30.834Z,967.94
2017-04-16T02:13:39.909Z,967.96
2017-04-16T02:14:48.983Z,967.95
2017-04-16T02:15:58.372Z,967.89
2017-04-16T02:17:07.573Z,967.91
2017-04-16T02:18:16.393Z,967.95
2017-04-16T02:19:25.882Z,967.93
2017-04-16T02:20:34.959Z,967.89
2017-04-16T02:21:44.023Z,967.94
2017-04-16T02:22:52.807Z,967.93
2017-04-16T02:24:01.882Z,967.96
2017-04-16T02:25:10.805Z,967.98
2017-04-16T02:26:20.497Z,967.98
2017-04-16T02:27:29.563Z,967.98
2017-04-16T02:28:38.938Z,967.97
2017-04-16T02:29:48.226Z,968.04
2017-04-16T02:30:57.301Z,968.07
2017-04-16T02:32:06.374Z,967.99
2017-04-16T02:33:15.395Z,967.97
2017-04-16T02:34:24.160Z,968.03
2017-04-16T02:35:33.554Z,968
2017-04-16T02:36:42.324Z,968.02
2017-04-16T02:37:51.078Z,968
2017-04-16T02:39:00.450Z,967.88
2017-04-16T02:40:10.281Z,967.79
2017-04-16T02:41:19.356Z,967.81
2017-04-16T02:42:28.134Z,967.8
2017-04-16T02:43:37.513Z,967.8
2017-04-16T02:44:46.881Z,967.82
2017-04-16T02:45:55.898Z,967.83
2017-04-16T02:47:04.664Z,967.87
2017-04-16T02:48:13.742Z,967.89
2017-04-16T02:49:22.830Z,967.91
2017-04-16T02:50:32.524Z,967.95
2017-04-16T02:51:41.589Z,968.01
2017-04-16T02:52:50.601Z,968
2017-04-16T02:54:00.233Z,967.98
2017-04-16T02:55:09.311Z,968.01
2017-04-16T02:56:18.064Z,967.99
2017-04-16T02:57:26.771Z,967.97
2017-04-16T02:58:36.407Z,967.98
2017-04-16T02:59:45.777Z,967.97
2017-04-16T03:00:54.848Z,967.99
2017-04-16T03:02:03.918Z,968.01
2017-04-16T03:03:12.668Z,968
2017-04-16T03:04:21.727Z,968
2017-04-16T03:05:31.089Z,967.99
2017-04-16T03:06:40.098Z,967.98
2017-04-16T03:07:49.057Z,967.99
2017-04-16T03:08:58.445Z,968
2017-04-16T03:10:07.450Z,968.03
2017-04-16T03:11:16.250Z,968.02
2017-04-16T03:12:25.230Z,968.03
2017-04-16T03:13:34.297Z,967.97
2017-04-16T03:14:44.419Z,967.98
2017-04-16T03:15:53.780Z,967.98
2017-04-16T03:17:02.840Z,967.91
2017-04-16T03:18:12.213Z,967.94
2017-04-16T03:19:20.947Z,967.95
2017-04-16T03:20:30.316Z,967.93
2017-04-16T03:21:39.067Z,967.92
2017-04-16T03:22:47.786Z,967.97
2017-04-16T03:23:57.645Z,967.92
2017-04-16T03:25:06.354Z,967.96
2017-04-16T03:26:15.107Z,967.94
2017-04-16T03:27:23.873Z,967.98
2017-04-16T03:28:32.933Z,967.98
2017-04-16T03:29:42.625Z,967.98
2017-04-16T03:30:51.999Z,968.03
2017-04-16T03:32:00.759Z,968.01
2017-04-16T03:33:09.530Z,968.01
2017-04-16T03:34:19.412Z,967.98
2017-04-16T03:35:28.479Z,968.01
2017-04-16T03:36:37.550Z,967.99
2017-04-16T03:37:46.309Z,968.06
2017-04-16T03:38:55.979Z,968.03
2017-04-16T03:40:04.987Z,968.04
2017-04-16T03:41:14.373Z,968.07
2017-04-16T03:42:23.434Z,968.07
2017-04-16T03:43:32.508Z,968.1
2017-04-16T03:44:41.874Z,968.08
2017-04-16T03:45:50.574Z,968.14
2017-04-16T03:46:59.336Z,968.14
2017-04-16T03:48:08.552Z,968.14
2017-04-16T03:49:17.304Z,968.08
2017-04-16T03:50:26.382Z,968.13
2017-04-16T03:51:35.135Z,968.08
2017-04-16T03:52:43.891Z,968.19
2017-04-16T03:53:53.885Z,968.11
2017-04-16T03:55:02.941Z,968.18
2017-04-16T03:56:11.956Z,968.14
2017-04-16T03:57:21.327Z,968.17
2017-04-16T03:58:30.099Z,968.13
2017-04-16T03:59:40.093Z,968.2
2017-04-16T04:00:49.196Z,968.17
2017-04-16T04:01:58.317Z,968.17
2017-04-16T04:03:07.255Z,968.14
2017-04-16T04:04:16.961Z,968.16
2017-04-16T04:05:26.631Z,968.14
2017-04-16T04:06:35.431Z,968.14
2017-04-16T04:07:44.492Z,968.16
2017-04-16T04:08:54.147Z,968.17
2017-04-16T04:10:02.910Z,968.13
2017-04-16T04:11:11.976Z,968.17
2017-04-16T04:12:20.757Z,968.17
2017-04-16T04:13:29.508Z,968.16
2017-04-16T04:14:39.112Z,968.24
2017-04-16T04:15:48.427Z,968.2
2017-04-16T04:16:57.994Z,968.23
2017-04-16T04:18:07.048Z,968.17
2017-04-16T04:19:17.030Z,968.19
2017-04-16T04:20:26.106Z,968.23
2017-04-16T04:21:35.172Z,968.3
2017-04-16T04:22:44.244Z,968.26
2017-04-16T04:23:53.911Z,968.28
2017-04-16T04:25:02.979Z,968.28
2017-04-16T04:26:11.726Z,968.24
2017-04-16T04:27:20.472Z,968.2
2017-04-16T04:28:29.492Z,968.24
2017-04-16T04:29:38.556Z,968.2
2017-04-16T04:30:47.269Z,968.21
2017-04-16T04:31:56.335Z,968.26
2017-04-16T04:33:05.093Z,968.28
2017-04-16T04:34:14.771Z,968.28
2017-04-16T04:35:23.833Z,968.27
2017-04-16T04:36:33.208Z,968.28
2017-04-16T04:37:42.316Z,968.32
2017-04-16T04:38:51.694Z,968.34
2017-04-16T04:40:00.734Z,968.37
2017-04-16T04:41:09.442Z,968.33
2017-04-16T04:42:18.825Z,968.37
2017-04-16T04:43:28.163Z,968.33
2017-04-16T04:44:37.545Z,968.39
2017-04-16T04:45:46.615Z,968.41
2017-04-16T04:46:55.677Z,968.41
2017-04-16T04:48:04.750Z,968.41
2017-04-16T04:49:13.822Z,968.42
2017-04-16T04:50:22.890Z,968.43
2017-04-16T04:51:32.264Z,968.42
2017-04-16T04:52:41.330Z,968.43
2017-04-16T04:53:50.092Z,968.42
2017-04-16T04:54:59.135Z,968.44
2017-04-16T04:56:07.846Z,968.46
2017-04-16T04:57:16.914Z,968.48
2017-04-16T04:58:26.290Z,968.53
2017-04-16T04:59:35.542Z,968.57
2017-04-16T05:00:44.553Z,968.55
2017-04-16T05:01:53.516Z,968.52
2017-04-16T05:03:02.593Z,968.58
2017-04-16T05:04:12.278Z,968.53
2017-04-16T05:05:21.381Z,968.54
2017-04-16T05:06:30.192Z,968.55
2017-04-16T05:07:39.818Z,968.61
2017-04-16T05:08:48.832Z,968.6
2017-04-16T05:09:58.208Z,968.6
2017-04-16T05:11:07.588Z,968.58
2017-04-16T05:12:16.960Z,968.61
2017-04-16T05:13:26.637Z,968.57
2017-04-16T05:14:36.008Z,968.59
2017-04-16T05:15:45.381Z,968.6
2017-04-16T05:16:54.450Z,968.63
2017-04-16T05:18:03.209Z,968.61
2017-04-16T05:19:12.276Z,968.62
2017-04-16T05:20:21.971Z,968.63
2017-04-16T05:21:31.019Z,968.62
2017-04-16T05:22:39.808Z,968.66
2017-04-16T05:23:49.171Z,968.66
2017-04-16T05:24:58.564Z,968.65
2017-04-16T05:26:07.633Z,968.65
2017-04-16T05:27:16.706Z,968.68
2017-04-16T05:28:26.081Z,968.7
2017-04-16T05:29:35.450Z,968.71
2017-04-16T05:30:44.207Z,968.66
2017-04-16T05:31:53.257Z,968.67
2017-04-16T05:33:02.011Z,968.67
2017-04-16T05:34:11.634Z,968.65
2017-04-16T05:35:20.967Z,968.68
2017-04-16T05:36:29.722Z,968.7
2017-04-16T05:37:38.807Z,968.7
2017-04-16T05:38:48.479Z,968.75
2017-04-16T05:39:57.198Z,968.72
2017-04-16T05:41:06.566Z,968.78
2017-04-16T05:42:15.305Z,968.75
2017-04-16T05:43:24.079Z,968.75
2017-04-16T05:44:33.764Z,968.8
2017-04-16T05:45:43.113Z,968.77
2017-04-16T05:46:51.827Z,968.8
2017-04-16T05:48:01.205Z,968.81
2017-04-16T05:49:10.583Z,968.78
2017-04-16T05:50:19.343Z,968.82
2017-04-16T05:51:28.108Z,968.83
2017-04-16T05:52:37.128Z,968.79
2017-04-16T05:53:46.146Z,968.83
2017-04-16T05:54:55.820Z,968.84
2017-04-16T05:56:04.902Z,968.83
2017-04-16T05:57:14.071Z,968.86
2017-04-16T05:58:23.310Z,968.84
2017-04-16T05:59:32.857Z,968.83
2017-04-16T06:00:42.225Z,968.81
2017-04-16T06:01:51.043Z,968.83
2017-04-16T06:03:00.314Z,968.86
2017-04-16T06:04:09.710Z,968.86
2017-04-16T06:05:19.083Z,968.88
2017-04-16T06:06:27.848Z,968.85
2017-04-16T06:07:37.277Z,968.88
2017-04-16T06:08:46.039Z,968.84
2017-04-16T06:09:55.425Z,968.86
2017-04-16T06:11:04.809Z,968.9
2017-04-16T06:12:13.971Z,968.89
2017-04-16T06:13:22.737Z,968.87
2017-04-16T06:14:31.491Z,968.92
2017-04-16T06:15:40.500Z,968.95
2017-04-16T06:16:49.561Z,968.91
2017-04-16T06:17:58.316Z,968.94
2017-04-16T06:19:07.631Z,968.94
2017-04-16T06:20:16.905Z,968.93
2017-04-16T06:21:25.667Z,968.97
2017-04-16T06:22:34.426Z,968.98
2017-04-16T06:23:44.093Z,969.01
2017-04-16T06:24:53.086Z,969.01
2017-04-16T06:26:02.171Z,969.03
2017-04-16T06:27:10.932Z,969.02
2017-04-16T06:28:20.621Z,969
2017-04-16T06:29:29.697Z,969.01
2017-04-16T06:30:39.068Z,969.03
2017-04-16T06:31:48.110Z,969.04
2017-04-16T06:32:57.119Z,969.01
2017-04-16T06:34:06.494Z,969.05
2017-04-16T06:35:15.561Z,969.05
2017-04-16T06:36:24.273Z,969.02
2017-04-16T06:37:33.039Z,969.06
2017-04-16T06:38:42.402Z,969.07
2017-04-16T06:39:51.422Z,969.04
2017-04-16T06:41:00.812Z,969.05
2017-04-16T06:42:09.583Z,969.03
2017-04-16T06:43:18.652Z,969.04
2017-04-16T06:44:27.723Z,969.02
2017-04-16T06:45:36.478Z,969.05
2017-04-16T06:46:45.558Z,969.07
2017-04-16T06:47:54.637Z,969.03
2017-04-16T06:49:04.308Z,969.01
2017-04-16T06:50:13.382Z,969.02
2017-04-16T06:51:22.768Z,969.07
2017-04-16T06:52:31.517Z,969.06
2017-04-16T06:53:40.526Z,969.05
2017-04-16T06:54:50.224Z,969.03
2017-04-16T06:55:59.598Z,969.08
2017-04-16T06:57:08.609Z,969.02
2017-04-16T06:58:17.663Z,969.04
2017-04-16T06:59:26.981Z,969.05
2017-04-16T07:00:36.657Z,969.06
2017-04-16T07:01:45.739Z,969.08
2017-04-16T07:02:54.482Z,969.11
2017-04-16T07:04:03.506Z,969.07
2017-04-16T07:05:13.245Z,969.06
2017-04-16T07:06:22.621Z,969.09
2017-04-16T07:07:31.681Z,969.1
2017-04-16T07:08:41.001Z,969.08
2017-04-16T07:09:50.372Z,969.07
2017-04-16T07:10:59.431Z,969.11
2017-04-16T07:12:08.197Z,969.12
2017-04-16T07:13:17.066Z,969.07
2017-04-16T07:14:26.169Z,969.08
2017-04-16T07:15:35.246Z,969.1
2017-04-16T07:16:44.011Z,969.11
2017-04-16T07:17:53.343Z,969.14
2017-04-16T07:19:03.020Z,969.08
2017-04-16T07:20:12.383Z,969.08
2017-04-16T07:21:21.151Z,969.11
2017-04-16T07:22:29.923Z,969.12
2017-04-16T07:23:39.428Z,969.1
2017-04-16T07:24:48.813Z,969.09
2017-04-16T07:25:57.970Z,969.1
2017-04-16T07:27:07.170Z,969.08
2017-04-16T07:28:16.403Z,969.1
2017-04-16T07:29:25.813Z,969.11
2017-04-16T07:30:34.929Z,969.08
2017-04-16T07:31:44.112Z,969.09
2017-04-16T07:32:53.949Z,969.1
2017-04-16T07:34:03.617Z,969.11
2017-04-16T07:35:12.692Z,969.11
2017-04-16T07:36:21.397Z,969.12
2017-04-16T07:37:30.162Z,969.11
2017-04-16T07:38:39.530Z,969.12
2017-04-16T07:39:49.208Z,969.1
2017-04-16T07:40:58.885Z,969.13
2017-04-16T07:42:07.647Z,969.14
2017-04-16T07:43:17.307Z,969.14
2017-04-16T07:44:26.323Z,969.13
2017-04-16T07:45:35.093Z,969.16
2017-04-16T07:46:44.170Z,969.18
2017-04-16T07:47:53.244Z,969.15
2017-04-16T07:49:02.304Z,969.12
2017-04-16T07:50:11.307Z,969.2
2017-04-16T07:51:20.070Z,969.2
2017-04-16T07:52:28.843Z,969.14
2017-04-16T07:53:38.222Z,969.16
2017-04-16T07:54:47.613Z,969.13
2017-04-16T07:55:56.987Z,969.16
2017-04-16T07:57:06.028Z,969.15
2017-04-16T07:58:15.040Z,969.19
2017-04-16T07:59:24.111Z,969.22
2017-04-16T08:00:33.989Z,969.22
2017-04-16T08:01:42.755Z,969.17
2017-04-16T08:02:51.523Z,969.19
2017-04-16T08:04:00.600Z,969.16
2017-04-16T08:05:09.970Z,969.19
2017-04-16T08:06:18.722Z,969.21
2017-04-16T08:07:27.472Z,969.19
2017-04-16T08:08:36.854Z,969.16
2017-04-16T08:09:46.221Z,969.2
2017-04-16T08:10:55.178Z,969.21
2017-04-16T08:12:03.937Z,969.2
2017-04-16T08:13:12.949Z,969.18
2017-04-16T08:14:22.024Z,969.17
2017-04-16T08:15:31.393Z,969.17
2017-04-16T08:16:40.148Z,969.19
2017-04-16T08:17:49.166Z,969.21
2017-04-16T08:18:58.533Z,969.18
2017-04-16T08:20:08.506Z,969.25
2017-04-16T08:21:17.210Z,969.21
2017-04-16T08:22:25.972Z,969.19
2017-04-16T08:23:34.744Z,969.17
2017-04-16T08:24:43.508Z,969.15
2017-04-16T08:25:52.884Z,969.16
2017-04-16T08:27:01.965Z,969.16
2017-04-16T08:28:10.732Z,969.13
2017-04-16T08:29:20.407Z,969.12
2017-04-16T08:30:29.489Z,969.06
2017-04-16T08:31:38.557Z,969.14
2017-04-16T08:32:47.320Z,969.16
2017-04-16T08:33:56.398Z,969.2
2017-04-16T08:35:05.177Z,969.17
2017-04-16T08:36:14.044Z,969.12
2017-04-16T08:37:22.821Z,969.17
2017-04-16T08:38:31.586Z,969.19
2017-04-16T08:39:40.659Z,969.2
2017-04-16T08:40:50.342Z,969.19
2017-04-16T08:41:59.399Z,969.2
2017-04-16T08:43:08.909Z,969.21
2017-04-16T08:44:17.606Z,969.24
2017-04-16T08:45:26.620Z,969.21
2017-04-16T08:46:35.685Z,969.22
2017-04-16T08:47:44.445Z,969.18
2017-04-16T08:48:53.205Z,969.19
2017-04-16T08:50:02.618Z,969.19
2017-04-16T08:51:11.996Z,969.22
2017-04-16T08:52:20.768Z,969.17
2017-04-16T08:53:29.814Z,969.2
2017-04-16T08:54:39.473Z,969.2
2017-04-16T08:55:48.876Z,969.21
2017-04-16T08:56:58.281Z,969.26
2017-04-16T08:58:07.357Z,969.22
2017-04-16T08:59:16.511Z,969.21
2017-04-16T09:00:25.887Z,969.24
2017-04-16T09:01:34.971Z,969.21
2017-04-16T09:02:43.883Z,969.18
2017-04-16T09:03:53.565Z,969.2
2017-04-16T09:05:02.637Z,969.17
2017-04-16T09:06:11.711Z,969.13
2017-04-16T09:07:20.766Z,969.17
2017-04-16T09:08:30.141Z,969.16
2017-04-16T09:09:39.833Z,969.13
2017-04-16T09:10:48.597Z,969.15
2017-04-16T09:11:57.663Z,969.13
2017-04-16T09:13:06.419Z,969.12
2017-04-16T09:14:15.486Z,969.04
2017-04-16T09:15:24.260Z,969.09
2017-04-16T09:16:33.324Z,969.04
2017-04-16T09:17:42.378Z,969.07
2017-04-16T09:18:51.997Z,969.02
2017-04-16T09:20:01.366Z,969.03
2017-04-16T09:21:10.643Z,969.05
2017-04-16T09:22:19.704Z,969.08
2017-04-16T09:23:29.032Z,969.06
2017-04-16T09:24:38.416Z,969.09
2017-04-16T09:25:47.821Z,969.04
2017-04-16T09:26:56.902Z,969.06
2017-04-16T09:28:05.664Z,969.05
2017-04-16T09:29:14.728Z,969.06
2017-04-16T09:30:23.782Z,969.04
2017-04-16T09:31:32.775Z,969.07
2017-04-16T09:32:41.476Z,969.04
2017-04-16T09:33:50.846Z,969.09
2017-04-16T09:35:00.220Z,969.14
2017-04-16T09:36:09.293Z,969.16
2017-04-16T09:37:18.069Z,969.19
2017-04-16T09:38:26.850Z,969.18
2017-04-16T09:39:35.925Z,969.21
2017-04-16T09:40:44.986Z,969.18
2017-04-16T09:41:54.567Z,969.16
2017-04-16T09:43:03.327Z,969.18
2017-04-16T09:44:12.708Z,969.23
2017-04-16T09:45:21.773Z,969.25
2017-04-16T09:46:30.840Z,969.25
2017-04-16T09:47:39.603Z,969.31
2017-04-16T09:48:48.674Z,969.38
2017-04-16T09:49:57.744Z,969.46
2017-04-16T09:51:06.816Z,969.43
2017-04-16T09:52:15.574Z,969.44
2017-04-16T09:53:24.594Z,969.37
2017-04-16T09:54:33.681Z,969.36
2017-04-16T09:55:42.706Z,969.36
2017-04-16T09:56:51.827Z,969.43
2017-04-16T09:58:00.622Z,969.42
2017-04-16T09:59:10.051Z,969.47
2017-04-16T10:00:19.018Z,969.59
2017-04-16T10:01:28.672Z,969.56
2017-04-16T10:02:37.624Z,969.56
2017-04-16T10:03:46.949Z,969.58
2017-04-16T10:04:56.307Z,969.48
2017-04-16T10:06:05.409Z,969.51
2017-04-16T10:07:14.531Z,969.48
2017-04-16T10:08:24.208Z,969.39
2017-04-16T10:09:33.628Z,969.36
2017-04-16T10:10:42.389Z,969.43
2017-04-16T10:11:51.403Z,969.44
2017-04-16T10:13:00.360Z,969.47
2017-04-16T10:14:09.124Z,969.52
2017-04-16T10:15:18.496Z,969.51
2017-04-16T10:16:27.263Z,969.53
2017-04-16T10:17:36.329Z,969.53
2017-04-16T10:18:46.234Z,969.5
2017-04-16T10:19:55.309Z,969.53
2017-04-16T10:21:04.683Z,969.5
2017-04-16T10:22:13.455Z,969.5
2017-04-16T10:23:22.829Z,969.46
2017-04-16T10:24:31.792Z,969.57
2017-04-16T10:25:41.172Z,969.47
2017-04-16T10:26:49.942Z,969.46
2017-04-16T10:27:59.012Z,969.47
2017-04-16T10:29:08.676Z,969.5
2017-04-16T10:30:17.755Z,969.47
2017-04-16T10:31:26.527Z,969.45
2017-04-16T10:32:35.287Z,969.43
2017-04-16T10:33:44.671Z,969.41
2017-04-16T10:34:54.355Z,969.37
2017-04-16T10:36:03.598Z,969.32
2017-04-16T10:37:12.628Z,969.37
2017-04-16T10:38:21.696Z,969.33
2017-04-16T10:39:30.468Z,969.3
2017-04-16T10:40:39.231Z,969.29
2017-04-16T10:41:48.298Z,969.27
2017-04-16T10:42:57.063Z,969.22
2017-04-16T10:44:06.116Z,969.23
2017-04-16T10:45:15.184Z,969.17
2017-04-16T10:46:24.248Z,969.18
2017-04-16T10:47:33.262Z,969.15
2017-04-16T10:48:43.256Z,969.15
2017-04-16T10:49:52.638Z,969.18
2017-04-16T10:51:01.719Z,969.15
2017-04-16T10:52:10.484Z,969.09
2017-04-16T10:53:19.426Z,969.08
2017-04-16T10:54:28.440Z,969.12
2017-04-16T10:55:37.603Z,969.06
2017-04-16T10:56:46.819Z,969.08
2017-04-16T10:57:55.625Z,969.02
2017-04-16T10:59:05.301Z,968.99
2017-04-16T11:00:15.384Z,969.12
2017-04-16T11:01:24.091Z,969.11
2017-04-16T11:02:33.043Z,969.07
2017-04-16T11:03:42.414Z,969.08
2017-04-16T11:04:51.789Z,969.09
2017-04-16T11:06:01.412Z,969.05
2017-04-16T11:07:10.474Z,969.08
2017-04-16T11:08:19.238Z,969.06
2017-04-16T11:09:28.274Z,969.02
2017-04-16T11:10:37.312Z,969.01
2017-04-16T11:11:46.081Z,969.04
2017-04-16T11:12:54.850Z,969.05
2017-04-16T11:14:04.521Z,968.98
2017-04-16T11:15:13.560Z,968.98
2017-04-16T11:16:22.638Z,968.95
2017-04-16T11:17:31.708Z,968.95
2017-04-16T11:18:41.413Z,968.97
2017-04-16T11:19:50.795Z,968.96
2017-04-16T11:20:59.874Z,968.97
2017-04-16T11:22:08.639Z,969
2017-04-16T11:23:18.069Z,969.07
2017-04-16T11:24:27.142Z,969.01
2017-04-16T11:25:35.895Z,968.96
2017-04-16T11:26:44.898Z,968.94
2017-04-16T11:27:53.914Z,968.91
2017-04-16T11:29:03.275Z,968.94
2017-04-16T11:30:12.912Z,968.95
2017-04-16T11:31:21.916Z,968.92
2017-04-16T11:32:30.963Z,968.95
2017-04-16T11:33:39.996Z,968.95
2017-04-16T11:34:49.681Z,969.03
2017-04-16T11:35:59.065Z,968.98
2017-04-16T11:37:08.340Z,968.99
2017-04-16T11:38:17.407Z,969.03
2017-04-16T11:39:26.670Z,969.09
2017-04-16T11:40:35.431Z,969.15
2017-04-16T11:41:44.501Z,969.21
2017-04-16T11:42:53.259Z,969.22
2017-04-16T11:44:02.636Z,969.26
2017-04-16T11:45:11.677Z,969.26
2017-04-16T11:46:20.437Z,969.27
2017-04-16T11:47:29.509Z,969.22
2017-04-16T11:48:39.190Z,969.2
2017-04-16T11:49:48.886Z,969.26
2017-04-16T11:50:58.429Z,969.23
2017-04-16T11:52:07.187Z,969.28
2017-04-16T11:53:16.490Z,969.28
2017-04-16T11:54:25.804Z,969.34
2017-04-16T11:55:35.085Z,969.39
2017-04-16T11:56:43.786Z,969.45
2017-04-16T11:57:52.991Z,969.49
2017-04-16T11:59:01.765Z,969.5
2017-04-16T12:00:10.866Z,969.48
2017-04-16T12:01:20.752Z,969.48
2017-04-16T12:02:29.790Z,969.52
2017-04-16T12:03:38.863Z,969.55
2017-04-16T12:04:47.938Z,969.61
2017-04-16T12:05:57.009Z,969.57
2017-04-16T12:07:06.687Z,969.6
2017-04-16T12:08:15.461Z,969.56
2017-04-16T12:09:24.536Z,969.58
2017-04-16T12:10:33.605Z,969.61
2017-04-16T12:11:42.356Z,969.58
2017-04-16T12:12:51.069Z,969.57
2017-04-16T12:14:00.150Z,969.6
2017-04-16T12:15:09.824Z,969.61
2017-04-16T12:16:18.890Z,969.6
2017-04-16T12:17:27.909Z,969.61
2017-04-16T12:18:36.978Z,969.66
2017-04-16T12:19:46.367Z,969.63
2017-04-16T12:20:55.734Z,969.67
2017-04-16T12:22:04.812Z,969.66
2017-04-16T12:23:14.373Z,969.61
2017-04-16T12:24:23.432Z,969.67
2017-04-16T12:25:32.802Z,969.66
2017-04-16T12:26:41.517Z,969.64
2017-04-16T12:27:50.261Z,969.71
2017-04-16T12:28:59.570Z,969.7
2017-04-16T12:30:09.188Z,969.7
2017-04-16T12:31:18.508Z,969.73
2017-04-16T12:32:27.774Z,969.72
2017-04-16T12:33:36.802Z,969.77
2017-04-16T12:34:45.914Z,969.73
2017-04-16T12:35:54.977Z,969.73
2017-04-16T12:37:04.052Z,969.71
2017-04-16T12:38:13.128Z,969.71
2017-04-16T12:39:22.504Z,969.71
2017-04-16T12:40:31.581Z,969.7
2017-04-16T12:41:40.951Z,969.7
2017-04-16T12:42:49.660Z,969.7
2017-04-16T12:43:59.321Z,969.68
2017-04-16T12:45:09.253Z,969.65
2017-04-16T12:46:18.621Z,969.68
2017-04-16T12:47:27.688Z,969.68
2017-04-16T12:48:36.721Z,969.68
2017-04-16T12:49:46.383Z,969.72
2017-04-16T12:50:55.704Z,969.72
2017-04-16T12:52:04.649Z,969.66
2017-04-16T12:53:14.002Z,969.66
2017-04-16T12:54:23.074Z,969.64
2017-04-16T12:55:32.583Z,969.65
2017-04-16T12:56:42.040Z,969.66
2017-04-16T12:57:50.798Z,969.66
2017-04-16T12:59:00.174Z,969.65
2017-04-16T13:00:09.251Z,969.65
2017-04-16T13:01:18.325Z,969.62
2017-04-16T13:02:27.080Z,969.61
2017-04-16T13:03:35.850Z,969.68
2017-04-16T13:04:46.012Z,969.69
2017-04-16T13:05:55.031Z,969.69
2017-04-16T13:07:03.784Z,969.67
2017-04-16T13:08:12.855Z,969.65
2017-04-16T13:09:22.826Z,969.67
2017-04-16T13:10:31.833Z,969.72
2017-04-16T13:11:40.852Z,969.67
2017-04-16T13:12:49.933Z,969.65
2017-04-16T13:13:59.624Z,969.65
2017-04-16T13:15:08.696Z,969.62
2017-04-16T13:16:17.711Z,969.64
2017-04-16T13:17:26.786Z,969.62
2017-04-16T13:18:35.861Z,969.66
2017-04-16T13:19:44.619Z,969.67
2017-04-16T13:20:53.339Z,969.66
2017-04-16T13:22:02.107Z,969.65
2017-04-16T13:23:10.905Z,969.67
2017-04-16T13:24:20.281Z,969.62
2017-04-16T13:25:29.097Z,969.61
2017-04-16T13:26:37.863Z,969.61
2017-04-16T13:27:46.932Z,969.66
2017-04-16T13:28:56.008Z,969.63
2017-04-16T13:30:05.063Z,969.61
2017-04-16T13:31:13.770Z,969.64
2017-04-16T13:32:22.532Z,969.65
2017-04-16T13:33:31.237Z,969.66
2017-04-16T13:34:40.624Z,969.63
2017-04-16T13:35:49.896Z,969.58
2017-04-16T13:36:58.654Z,969.58
2017-04-16T13:38:07.675Z,969.6
2017-04-16T13:39:17.663Z,969.58
2017-04-16T13:40:26.405Z,969.54
2017-04-16T13:41:35.168Z,969.59
2017-04-16T13:42:44.234Z,969.56
2017-04-16T13:43:53.918Z,969.55
2017-04-16T13:45:02.989Z,969.52
2017-04-16T13:46:11.714Z,969.57
2017-04-16T13:47:20.784Z,969.51
2017-04-16T13:48:29.860Z,969.47
2017-04-16T13:49:39.482Z,969.45
2017-04-16T13:50:48.869Z,969.47
2017-04-16T13:51:58.248Z,969.48
2017-04-16T13:53:07.299Z,969.49
2017-04-16T13:54:16.094Z,969.46
2017-04-16T13:55:25.189Z,969.45
2017-04-16T13:56:34.102Z,969.45
2017-04-16T13:57:43.670Z,969.44
2017-04-16T13:58:52.811Z,969.47
2017-04-16T14:00:01.579Z,969.44
2017-04-16T14:01:10.644Z,969.5
2017-04-16T14:02:19.406Z,969.46
2017-04-16T14:03:28.498Z,969.43
2017-04-16T14:04:37.566Z,969.49
2017-04-16T14:05:46.271Z,969.45
2017-04-16T14:06:55.338Z,969.48
2017-04-16T14:08:04.345Z,969.45
2017-04-16T14:09:13.417Z,969.48
2017-04-16T14:10:22.186Z,969.46
2017-04-16T14:11:31.869Z,969.49
2017-04-16T14:12:41.250Z,969.42
2017-04-16T14:13:51.532Z,969.44
2017-04-16T14:15:00.895Z,969.44
2017-04-16T14:16:09.906Z,969.43
2017-04-16T14:17:18.984Z,969.39
2017-04-16T14:18:28.262Z,969.4
2017-04-16T14:19:37.630Z,969.37
2017-04-16T14:20:46.719Z,969.41
2017-04-16T14:21:55.463Z,969.43
2017-04-16T14:23:04.765Z,969.39
2017-04-16T14:24:14.100Z,969.42
2017-04-16T14:25:23.430Z,969.43
2017-04-16T14:26:32.502Z,969.47